Dixiana, SC

10:18 AM EST on March 04, 2015 (GMT -0500)
J and M Weather Station | Change Station
CLOSE
Current Station
Personal Weather Station
Location: Lexington, SC
Elevation: 315 ft
Nearby Weather Stations

Elev 315 ft 33.99 °N, 81.14 °W | Updated 13 seconds ago

Mostly Cloudy
Mostly Cloudy
71.8 °F
Feels Like 71 °F
N
3.8
Wind Variable Wind from East
Gusts 8.3 mph

Today
High -- | Low -- °F
--% Chance of Precip.
Yesterday
High -- | Low -- °F
Precip. -- in
6:49 AM 6:23 PM
Waxing Gibbous, 99% visible
Pressure 30.06 in
Visibility 10.0 miles
Clouds Scattered Clouds 1000 ft
Scattered Clouds 22000 ft
Heat Index 71 °F
Dew Point 66 °F
Humidity 83%
Rainfall 0.00 in
Snow Depth Not available.
UV 3 out of 12
Pollen 10.30 out of 12
Air Quality Not available.
Flu Activity Not available.
SPECI KCAE 041509Z 22011G15KT 10SM SCT010 SCT220 19/16 A3006 RMK AO2 T01940161

More Conditions Fewer Conditions

Pressure 30.06 in
Visibility 10.0 miles
Clouds Scattered Clouds 1000 ft
Scattered Clouds 22000 ft
Heat Index 71 °F
Dew Point 66 °F
Humidity 83%
Rainfall 0.00 in
Snow Depth Not available.
UV 3 out of 12
Pollen 10.30 out of 12
Air Quality Not available.
Flu Activity Not available.
SPECI KCAE 041509Z 22011G15KT 10SM SCT010 SCT220 19/16 A3006 RMK AO2 T01940161

More Conditions Fewer Conditions

10-Day Weather Forecast

Almanac

Astronomy

Mar. 04, 2015 Rise Set
Actual Time
Civil Twilight
Nautical Twilight
Astronomical Twilight
Moon
Length of Visible Light
Length of Day
Tomorrow will be .
, % of the Moon is Illuminated

Today's Extremes

State Highs State Lows

Community

WunderPhotos

Upload Photos

1,802,487 photos uploaded!

WunderBlogs® & News

Nearby

Air Quality

  Air Quality AQ Index Pollutant
Not available.

Snow Depth

Station Depth Elevation

Earthquake Activity

City Distance Mag. Time & Date
Minimum magnitude displayed is 2.5.

Coastal Water Temperatures

Place Temperature

Nearby Weather Stations